Eships Dana — ZDJT6 — position and weather

sailwx.info

Track history (hours):
 
Tides and Currents Weather Stations Pressure Air Temp Water Temp Dewpoint Dewpoint Depression Visibility Wind Speed Wind Dir Waves Ship Positions

Eships Dana

Last reported at 2016-Feb-10 14:11 UTC. Time now 2016-Feb-10 15:18 UTC.
Position N 51°56' E 003°49'.

Length 116 m; draft 7.1 m.

Type: Ship (hazmat cat A). MMSI: 236566000.

Date/timePositionNaut miles runAvg speedWind from/ knotsBaromVisibWave heightAir tempDewpointWater temp
2016-Feb-10 14:11N 51°56' E 003°49'0 0.1
2016-Feb-10 13:23N 51°56' E 003°49'0 0.1
2016-Feb-10 12:32N 51°56' E 003°49'0 0.1
2016-Feb-10 11:32N 51°56' E 003°48'0 0.0
2016-Feb-10 10:32N 51°56' E 003°48'0 0.0
2016-Feb-10 09:32N 51°56' E 003°48'0 0.1
2016-Feb-10 08:32N 51°56' E 003°49'0 0.1
2016-Feb-10 07:32N 51°56' E 003°49'0 0.0
2016-Feb-10 06:32N 51°56' E 003°49'0 0.0
2016-Feb-10 05:32N 51°56' E 003°49'0 0.0
2016-Feb-10 04:32N 51°56' E 003°49'0 0.0
2016-Feb-10 03:32N 51°56' E 003°49'0 0.0
2016-Feb-10 02:29N 51°56' E 003°49'0 0.0
2016-Feb-10 01:32N 51°56' E 003°49'0 0.1
2016-Feb-10 00:29N 51°56' E 003°49'0 0.0
2016-Feb-09 23:26N 51°56' E 003°49'0 0.1
2016-Feb-09 22:32N 51°56' E 003°48'0 0.1
2016-Feb-09 21:29N 51°56' E 003°48'0 0.1
2016-Feb-09 20:32N 51°56' E 003°48'0 0.1
2016-Feb-09 19:29N 51°56' E 003°49'0 0.0
2016-Feb-09 18:29N 51°56' E 003°49'0 0.0
2016-Feb-09 17:32N 51°56' E 003°49'0 0.0
2016-Feb-09 16:23N 51°56' E 003°49'0 0.0
2016-Feb-09 15:29N 51°56' E 003°48'0 0.0
2016-Feb-09 14:29N 51°56' E 003°48'0 0.0
2016-Feb-09 13:32N 51°56' E 003°48'0 0.0
2016-Feb-09 12:29N 51°56' E 003°48'0 0.1
2016-Feb-09 11:32N 51°56' E 003°48'0 0.1
2016-Feb-09 10:33N 51°56' E 003°48'5 5.4
2016-Feb-09 09:33N 51°53' E 003°41'0 0.4
2016-Feb-09 08:29N 51°53' E 003°41'4 4.1
2016-Feb-09 07:33N 51°54' E 003°47'5 5.2
2016-Feb-09 06:33N 51°53' E 003°39'5 5.1
2016-Feb-09 05:33N 51°51' E 003°31'4 3.3
2016-Feb-09 04:18N 51°52' E 003°38'2 3.3
2016-Feb-09 03:33N 51°53' E 003°42'3 2.7
2016-Feb-09 02:33N 51°54' E 003°45'2 2.3
2016-Feb-09 01:33N 51°55' E 003°49'7 6.7
2016-Feb-09 00:33N 51°53' E 003°38'2 1.9
2016-Feb-08 23:27N 51°52' E 003°35'2 2.4
2016-Feb-08 22:32N 51°53' E 003°39'3 2.6
2016-Feb-08 21:33N 51°54' E 003°43'2 2.3
2016-Feb-08 20:33N 51°54' E 003°47'4 3.8
2016-Feb-08 19:33N 51°53' E 003°41'2 2.2
2016-Feb-08 18:33N 51°53' E 003°37'2 1.8
2016-Feb-08 17:32N 51°54' E 003°40'3 2.9
2016-Feb-08 16:22N 51°55' E 003°46'1 1.5
2016-Feb-08 15:32N 51°56' E 003°47'0 0.0
2016-Feb-08 14:32N 51°56' E 003°47'0 0.0
2016-Feb-08 13:32N 51°56' E 003°47'0 0.0
2016-Feb-08 12:29N 51°56' E 003°47'0 0.0
2016-Feb-08 11:32N 51°56' E 003°47'0 0.0
2016-Feb-08 10:32N 51°56' E 003°47'0 0.0
2016-Feb-08 09:29N 51°56' E 003°47'0 0.0
2016-Feb-08 08:32N 51°56' E 003°47'0 0.0
2016-Feb-08 07:20N 51°56' E 003°47'0 0.0
2016-Feb-08 06:29N 51°56' E 003°47'0 0.0
2016-Feb-08 05:32N 51°56' E 003°47'0 0.0
2016-Feb-08 04:29N 51°56' E 003°47'0 0.0
2016-Feb-08 03:23N 51°56' E 003°47'0 0.0
2016-Feb-08 02:32N 51°56' E 003°47'0 0.1
2016-Feb-08 01:32N 51°56' E 003°47'0 0.1
2016-Feb-08 00:32N 51°56' E 003°47'0 0.0
2016-Feb-07 23:32N 51°56' E 003°47'0 0.0
2016-Feb-07 22:32N 51°56' E 003°46'0 0.0
2016-Feb-07 21:32N 51°56' E 003°46'0 0.0
2016-Feb-07 20:32N 51°56' E 003°46'0 0.0
2016-Feb-07 19:32N 51°56' E 003°46'0 0.0
2016-Feb-07 18:26N 51°56' E 003°46'0 0.0
2016-Feb-07 17:32N 51°56' E 003°46'0 0.0
2016-Feb-07 16:32N 51°56' E 003°47'0 0.0
2016-Feb-07 15:32N 51°56' E 003°46'0 0.0
2016-Feb-07 14:29N 51°56' E 003°46'0 0.0
2016-Feb-07 13:32N 51°56' E 003°46'0 0.0
2016-Feb-07 12:32N 51°56' E 003°46'0 0.0
2016-Feb-07 11:32N 51°56' E 003°47'0 0.0
2016-Feb-07 10:26N 51°56' E 003°46'0 0.0
2016-Feb-07 09:32N 51°56' E 003°47'0 0.0
2016-Feb-07 08:26N 51°55' E 003°47'4 4.7
2016-Feb-07 07:33N 51°58' E 003°41'167 9.5
2016-Feb-06 14:07N 54°06' E 000°44'712.9
2016-Feb-06 13:33N 54°12' E 000°38'1313.1
2016-Feb-06 12:33N 54°24' E 000°28'1413.8
2016-Feb-06 11:34N 54°36' E 000°16'1413.9
2016-Feb-06 10:33N 54°47' E 000°01'1413.7
2016-Feb-06 09:33N 54°57' W 000°14'1513.4
2016-Feb-06 08:28N 55°09' W 000°30'1313.5
2016-Feb-06 07:32N 55°18' W 000°44'5513.5
2016-Feb-06 03:28N 55°57' W 001°53'1414.9
2016-Feb-06 02:33N 56°02' W 002°16'1514.7
2016-Feb-06 01:33N 56°07' W 002°40'1414.2
2016-Feb-06 00:33N 56°03' W 003°05'1211.8
2016-Feb-05 23:33N 56°00' W 003°25'9 8.0
2016-Feb-05 22:25N 56°02' W 003°41'0 0.0
2016-Feb-04 22:33N 56°02' W 003°41'2 2.3
2016-Feb-04 21:29N 56°02' W 003°37'1010.9
2016-Feb-04 20:33N 56°01' W 003°19'10 9.8
2016-Feb-04 19:33N 56°06' W 003°04'2 1.8
2016-Feb-04 18:31N 56°08' W 003°03'0 0.0
2016-Feb-04 17:31N 56°08' W 003°03'0 0.0
2016-Feb-04 16:31N 56°08' W 003°03'0 0.0
2016-Feb-04 15:31N 56°08' W 003°03'0 0.0
2016-Feb-04 14:31N 56°08' W 003°03'0 0.0
2016-Feb-04 13:31N 56°08' W 003°03'0 0.0
2016-Feb-04 12:31N 56°08' W 003°03'0 0.0
2016-Feb-04 11:31N 56°08' W 003°03'0 0.0
2016-Feb-04 10:31N 56°08' W 003°03'0 0.0
2016-Feb-04 09:31N 56°08' W 003°03'0 0.1
2016-Feb-04 08:31N 56°07' W 003°03'0 0.0
2016-Feb-04 07:31N 56°07' W 003°03'0 0.0
2016-Feb-04 06:31N 56°07' W 003°03'0 0.1
2016-Feb-04 05:31N 56°07' W 003°03'0 0.0
2016-Feb-04 04:31N 56°08' W 003°03'0 0.1
2016-Feb-04 03:34N 56°08' W 003°03'0 0.0
2016-Feb-04 02:34N 56°08' W 003°03'0 0.0
2016-Feb-04 01:34N 56°08' W 003°03'0 0.0
2016-Feb-04 00:34N 56°08' W 003°03'0 0.0
2016-Feb-03 23:33N 56°08' W 003°03'0 0.0
2016-Feb-03 22:33N 56°08' W 003°03'0 0.0
2016-Feb-03 21:34N 56°08' W 003°03'0 0.0
2016-Feb-03 20:34N 56°08' W 003°03'0 0.0
2016-Feb-03 19:34N 56°08' W 003°03'0 0.0
2016-Feb-03 18:33N 56°08' W 003°03'0 0.0
2016-Feb-03 17:34N 56°08' W 003°03'0 0.0
2016-Feb-03 16:34N 56°08' W 003°03'0 0.0
2016-Feb-03 15:33N 56°08' W 003°03'0 0.0
2016-Feb-03 14:34N 56°08' W 003°03'0 0.0
2016-Feb-03 13:33N 56°08' W 003°03'0 0.0
2016-Feb-03 12:34N 56°08' W 003°03'0 0.0
2016-Feb-03 11:34N 56°08' W 003°03'0 0.0
2016-Feb-03 10:34N 56°08' W 003°03'0 0.0
2016-Feb-03 09:33N 56°07' W 003°03'0 0.0
2016-Feb-03 08:34N 56°07' W 003°03'0 0.0
2016-Feb-03 07:34N 56°07' W 003°03'0 0.0
2016-Feb-03 06:34N 56°07' W 003°03'0 0.0
2016-Feb-03 05:34N 56°08' W 003°03'0 0.0
2016-Feb-03 04:33N 56°08' W 003°03'0 0.0
2016-Feb-03 03:34N 56°08' W 003°03'0 0.0
2016-Feb-03 02:34N 56°08' W 003°03'0 0.0
2016-Feb-03 01:34N 56°08' W 003°03'0 0.0
2016-Feb-03 00:34N 56°08' W 003°03'0 0.0
2016-Feb-02 23:34N 56°08' W 003°03'0 0.0
2016-Feb-02 22:34N 56°08' W 003°03'0 0.0
2016-Feb-02 21:34N 56°08' W 003°03'0 0.1
2016-Feb-02 20:34N 56°08' W 003°03'9 8.8
2016-Feb-02 19:34N 56°07' W 002°47'4 3.7
2016-Feb-02 18:34N 56°08' W 002°41'2 2.1
2016-Feb-02 17:34N 56°10' W 002°38'1 1.3
2016-Feb-02 16:34N 56°09' W 002°40'2 1.9
2016-Feb-02 15:33N 56°09' W 002°44'2 2.3
2016-Feb-02 14:34N 56°08' W 002°48'2 2.4
2016-Feb-02 13:34N 56°07' W 002°52'0 0.2
2016-Feb-02 12:34N 56°07' W 002°51'2 1.6
2016-Feb-02 11:34N 56°07' W 002°48'2 2.3
2016-Feb-02 10:34N 56°08' W 002°44'2 1.7
2016-Feb-02 09:34N 56°09' W 002°42'1 1.1
2016-Feb-02 08:34N 56°10' W 002°40'1 1.1
2016-Feb-02 07:34N 56°10' W 002°38'1 0.8
2016-Feb-02 06:34N 56°10' W 002°40'2 2.1
2016-Feb-02 05:34N 56°09' W 002°43'2 2.2
2016-Feb-02 04:34N 56°08' W 002°47'2 2.4
2016-Feb-02 03:34N 56°07' W 002°51'1 0.6
2016-Feb-02 02:34N 56°07' W 002°52'3 2.8
2016-Feb-02 01:34N 56°08' W 002°47'2 2.1
2016-Feb-02 00:34N 56°08' W 002°43'2 2.0
2016-Feb-01 23:34N 56°08' W 002°40'3 2.8
2016-Feb-01 22:33N 56°11' W 002°37'3 2.8
2016-Feb-01 21:34N 56°10' W 002°42'3 3.0
2016-Feb-01 20:34N 56°09' W 002°47'2 2.1
2016-Feb-01 19:34N 56°07' W 002°50'2 1.7
2016-Feb-01 18:34N 56°08' W 002°47'2 1.7
2016-Feb-01 17:34N 56°09' W 002°44'1 1.1
2016-Feb-01 16:33N 56°09' W 002°42'2 1.6
2016-Feb-01 15:33N 56°09' W 002°39'3 3.1
2016-Feb-01 14:34N 56°09' W 002°44'6 6.1
2016-Feb-01 13:34N 56°08' W 002°34'1212.4
2016-Feb-01 12:34N 56°03' W 002°14'1212.3
2016-Feb-01 11:34N 55°57' W 001°54'1212.4
2016-Feb-01 10:34N 55°52' W 001°34'5313.3
2016-Feb-01 06:33N 55°12' W 000°33'1413.8
2016-Feb-01 05:32N 55°00' W 000°18'1414.1
2016-Feb-01 04:33N 54°50' W 000°03'1414.4
2016-Feb-01 03:33N 54°38' E 000°13'1515.1
2016-Feb-01 02:33N 54°26' E 000°27'1515.2
2016-Feb-01 01:33N 54°12' E 000°39'  
Track history (hours):
 
Tides and Currents Weather Stations Pressure Air Temp Water Temp Dewpoint Dewpoint Depression Visibility Wind Speed Wind Dir Waves Ship Positions

Eships Dana

Last reported at 2016-Feb-10 14:11 UTC. Time now 2016-Feb-10 15:18 UTC.
Position N 51°56' E 003°49'.

Length 116 m; draft 7.1 m.

Type: Ship (hazmat cat A). MMSI: 236566000.

Date/timePositionNaut miles runAvg speedWind from/ knotsBaromVisibWave heightAir tempDewpointWater temp
2016-Feb-10 14:11N 51°56' E 003°49'0 0.1
2016-Feb-10 13:23N 51°56' E 003°49'0 0.1
2016-Feb-10 12:32N 51°56' E 003°49'0 0.1
2016-Feb-10 11:32N 51°56' E 003°48'0 0.0
2016-Feb-10 10:32N 51°56' E 003°48'0 0.0
2016-Feb-10 09:32N 51°56' E 003°48'0 0.1
2016-Feb-10 08:32N 51°56' E 003°49'0 0.1
2016-Feb-10 07:32N 51°56' E 003°49'0 0.0
2016-Feb-10 06:32N 51°56' E 003°49'0 0.0
2016-Feb-10 05:32N 51°56' E 003°49'0 0.0
2016-Feb-10 04:32N 51°56' E 003°49'0 0.0
2016-Feb-10 03:32N 51°56' E 003°49'0 0.0
2016-Feb-10 02:29N 51°56' E 003°49'0 0.0
2016-Feb-10 01:32N 51°56' E 003°49'0 0.1
2016-Feb-10 00:29N 51°56' E 003°49'0 0.0
2016-Feb-09 23:26N 51°56' E 003°49'0 0.1
2016-Feb-09 22:32N 51°56' E 003°48'0 0.1
2016-Feb-09 21:29N 51°56' E 003°48'0 0.1
2016-Feb-09 20:32N 51°56' E 003°48'0 0.1
2016-Feb-09 19:29N 51°56' E 003°49'0 0.0
2016-Feb-09 18:29N 51°56' E 003°49'0 0.0
2016-Feb-09 17:32N 51°56' E 003°49'0 0.0
2016-Feb-09 16:23N 51°56' E 003°49'0 0.0
2016-Feb-09 15:29N 51°56' E 003°48'0 0.0
2016-Feb-09 14:29N 51°56' E 003°48'0 0.0
2016-Feb-09 13:32N 51°56' E 003°48'0 0.0
2016-Feb-09 12:29N 51°56' E 003°48'0 0.1
2016-Feb-09 11:32N 51°56' E 003°48'0 0.1
2016-Feb-09 10:33N 51°56' E 003°48'5 5.4
2016-Feb-09 09:33N 51°53' E 003°41'0 0.4
2016-Feb-09 08:29N 51°53' E 003°41'4 4.1
2016-Feb-09 07:33N 51°54' E 003°47'5 5.2
2016-Feb-09 06:33N 51°53' E 003°39'5 5.1
2016-Feb-09 05:33N 51°51' E 003°31'4 3.3
2016-Feb-09 04:18N 51°52' E 003°38'2 3.3
2016-Feb-09 03:33N 51°53' E 003°42'3 2.7
2016-Feb-09 02:33N 51°54' E 003°45'2 2.3
2016-Feb-09 01:33N 51°55' E 003°49'7 6.7
2016-Feb-09 00:33N 51°53' E 003°38'2 1.9
2016-Feb-08 23:27N 51°52' E 003°35'2 2.4
2016-Feb-08 22:32N 51°53' E 003°39'3 2.6
2016-Feb-08 21:33N 51°54' E 003°43'2 2.3
2016-Feb-08 20:33N 51°54' E 003°47'4 3.8
2016-Feb-08 19:33N 51°53' E 003°41'2 2.2
2016-Feb-08 18:33N 51°53' E 003°37'2 1.8
2016-Feb-08 17:32N 51°54' E 003°40'3 2.9
2016-Feb-08 16:22N 51°55' E 003°46'1 1.5
2016-Feb-08 15:32N 51°56' E 003°47'0 0.0
2016-Feb-08 14:32N 51°56' E 003°47'0 0.0
2016-Feb-08 13:32N 51°56' E 003°47'0 0.0
2016-Feb-08 12:29N 51°56' E 003°47'0 0.0
2016-Feb-08 11:32N 51°56' E 003°47'0 0.0
2016-Feb-08 10:32N 51°56' E 003°47'0 0.0
2016-Feb-08 09:29N 51°56' E 003°47'0 0.0
2016-Feb-08 08:32N 51°56' E 003°47'0 0.0
2016-Feb-08 07:20N 51°56' E 003°47'0 0.0
2016-Feb-08 06:29N 51°56' E 003°47'0 0.0
2016-Feb-08 05:32N 51°56' E 003°47'0 0.0
2016-Feb-08 04:29N 51°56' E 003°47'0 0.0
2016-Feb-08 03:23N 51°56' E 003°47'0 0.0
2016-Feb-08 02:32N 51°56' E 003°47'0 0.1
2016-Feb-08 01:32N 51°56' E 003°47'0 0.1
2016-Feb-08 00:32N 51°56' E 003°47'0 0.0
2016-Feb-07 23:32N 51°56' E 003°47'0 0.0
2016-Feb-07 22:32N 51°56' E 003°46'0 0.0
2016-Feb-07 21:32N 51°56' E 003°46'0 0.0
2016-Feb-07 20:32N 51°56' E 003°46'0 0.0
2016-Feb-07 19:32N 51°56' E 003°46'0 0.0
2016-Feb-07 18:26N 51°56' E 003°46'0 0.0
2016-Feb-07 17:32N 51°56' E 003°46'0 0.0
2016-Feb-07 16:32N 51°56' E 003°47'0 0.0
2016-Feb-07 15:32N 51°56' E 003°46'0 0.0
2016-Feb-07 14:29N 51°56' E 003°46'0 0.0
2016-Feb-07 13:32N 51°56' E 003°46'0 0.0
2016-Feb-07 12:32N 51°56' E 003°46'0 0.0
2016-Feb-07 11:32N 51°56' E 003°47'0 0.0
2016-Feb-07 10:26N 51°56' E 003°46'0 0.0
2016-Feb-07 09:32N 51°56' E 003°47'0 0.0
2016-Feb-07 08:26N 51°55' E 003°47'4 4.7
2016-Feb-07 07:33N 51°58' E 003°41'167 9.5
2016-Feb-06 14:07N 54°06' E 000°44'712.9
2016-Feb-06 13:33N 54°12' E 000°38'1313.1
2016-Feb-06 12:33N 54°24' E 000°28'1413.8
2016-Feb-06 11:34N 54°36' E 000°16'1413.9
2016-Feb-06 10:33N 54°47' E 000°01'1413.7
2016-Feb-06 09:33N 54°57' W 000°14'1513.4
2016-Feb-06 08:28N 55°09' W 000°30'1313.5
2016-Feb-06 07:32N 55°18' W 000°44'5513.5
2016-Feb-06 03:28N 55°57' W 001°53'1414.9
2016-Feb-06 02:33N 56°02' W 002°16'1514.7
2016-Feb-06 01:33N 56°07' W 002°40'1414.2
2016-Feb-06 00:33N 56°03' W 003°05'1211.8
2016-Feb-05 23:33N 56°00' W 003°25'9 8.0
2016-Feb-05 22:25N 56°02' W 003°41'0 0.0
2016-Feb-04 22:33N 56°02' W 003°41'2 2.3
2016-Feb-04 21:29N 56°02' W 003°37'1010.9
2016-Feb-04 20:33N 56°01' W 003°19'10 9.8
2016-Feb-04 19:33N 56°06' W 003°04'2 1.8
2016-Feb-04 18:31N 56°08' W 003°03'0 0.0
2016-Feb-04 17:31N 56°08' W 003°03'0 0.0
2016-Feb-04 16:31N 56°08' W 003°03'0 0.0
2016-Feb-04 15:31N 56°08' W 003°03'0 0.0
2016-Feb-04 14:31N 56°08' W 003°03'0 0.0
2016-Feb-04 13:31N 56°08' W 003°03'0 0.0
2016-Feb-04 12:31N 56°08' W 003°03'0 0.0
2016-Feb-04 11:31N 56°08' W 003°03'0 0.0
2016-Feb-04 10:31N 56°08' W 003°03'0 0.0
2016-Feb-04 09:31N 56°08' W 003°03'0 0.1
2016-Feb-04 08:31N 56°07' W 003°03'0 0.0
2016-Feb-04 07:31N 56°07' W 003°03'0 0.0
2016-Feb-04 06:31N 56°07' W 003°03'0 0.1
2016-Feb-04 05:31N 56°07' W 003°03'0 0.0
2016-Feb-04 04:31N 56°08' W 003°03'0 0.1
2016-Feb-04 03:34N 56°08' W 003°03'0 0.0
2016-Feb-04 02:34N 56°08' W 003°03'0 0.0
2016-Feb-04 01:34N 56°08' W 003°03'0 0.0
2016-Feb-04 00:34N 56°08' W 003°03'0 0.0
2016-Feb-03 23:33N 56°08' W 003°03'0 0.0
2016-Feb-03 22:33N 56°08' W 003°03'0 0.0
2016-Feb-03 21:34N 56°08' W 003°03'0 0.0
2016-Feb-03 20:34N 56°08' W 003°03'0 0.0
2016-Feb-03 19:34N 56°08' W 003°03'0 0.0
2016-Feb-03 18:33N 56°08' W 003°03'0 0.0
2016-Feb-03 17:34N 56°08' W 003°03'0 0.0
2016-Feb-03 16:34N 56°08' W 003°03'0 0.0
2016-Feb-03 15:33N 56°08' W 003°03'0 0.0
2016-Feb-03 14:34N 56°08' W 003°03'0 0.0
2016-Feb-03 13:33N 56°08' W 003°03'0 0.0
2016-Feb-03 12:34N 56°08' W 003°03'0 0.0
2016-Feb-03 11:34N 56°08' W 003°03'0 0.0
2016-Feb-03 10:34N 56°08' W 003°03'0 0.0
2016-Feb-03 09:33N 56°07' W 003°03'0 0.0
2016-Feb-03 08:34N 56°07' W 003°03'0 0.0
2016-Feb-03 07:34N 56°07' W 003°03'0 0.0
2016-Feb-03 06:34N 56°07' W 003°03'0 0.0
2016-Feb-03 05:34N 56°08' W 003°03'0 0.0
2016-Feb-03 04:33N 56°08' W 003°03'0 0.0
2016-Feb-03 03:34N 56°08' W 003°03'0 0.0
2016-Feb-03 02:34N 56°08' W 003°03'0 0.0
2016-Feb-03 01:34N 56°08' W 003°03'0 0.0
2016-Feb-03 00:34N 56°08' W 003°03'0 0.0
2016-Feb-02 23:34N 56°08' W 003°03'0 0.0
2016-Feb-02 22:34N 56°08' W 003°03'0 0.0
2016-Feb-02 21:34N 56°08' W 003°03'0 0.1
2016-Feb-02 20:34N 56°08' W 003°03'9 8.8
2016-Feb-02 19:34N 56°07' W 002°47'4 3.7
2016-Feb-02 18:34N 56°08' W 002°41'2 2.1
2016-Feb-02 17:34N 56°10' W 002°38'1 1.3
2016-Feb-02 16:34N 56°09' W 002°40'2 1.9
2016-Feb-02 15:33N 56°09' W 002°44'2 2.3
2016-Feb-02 14:34N 56°08' W 002°48'2 2.4
2016-Feb-02 13:34N 56°07' W 002°52'0 0.2
2016-Feb-02 12:34N 56°07' W 002°51'2 1.6
2016-Feb-02 11:34N 56°07' W 002°48'2 2.3
2016-Feb-02 10:34N 56°08' W 002°44'2 1.7
2016-Feb-02 09:34N 56°09' W 002°42'1 1.1
2016-Feb-02 08:34N 56°10' W 002°40'1 1.1
2016-Feb-02 07:34N 56°10' W 002°38'1 0.8
2016-Feb-02 06:34N 56°10' W 002°40'2 2.1
2016-Feb-02 05:34N 56°09' W 002°43'2 2.2
2016-Feb-02 04:34N 56°08' W 002°47'2 2.4
2016-Feb-02 03:34N 56°07' W 002°51'1 0.6
2016-Feb-02 02:34N 56°07' W 002°52'3 2.8
2016-Feb-02 01:34N 56°08' W 002°47'2 2.1
2016-Feb-02 00:34N 56°08' W 002°43'2 2.0
2016-Feb-01 23:34N 56°08' W 002°40'3 2.8
2016-Feb-01 22:33N 56°11' W 002°37'3 2.8
2016-Feb-01 21:34N 56°10' W 002°42'3 3.0
2016-Feb-01 20:34N 56°09' W 002°47'2 2.1
2016-Feb-01 19:34N 56°07' W 002°50'2 1.7
2016-Feb-01 18:34N 56°08' W 002°47'2 1.7
2016-Feb-01 17:34N 56°09' W 002°44'1 1.1
2016-Feb-01 16:33N 56°09' W 002°42'2 1.6
2016-Feb-01 15:33N 56°09' W 002°39'3 3.1
2016-Feb-01 14:34N 56°09' W 002°44'6 6.1
2016-Feb-01 13:34N 56°08' W 002°34'1212.4
2016-Feb-01 12:34N 56°03' W 002°14'1212.3
2016-Feb-01 11:34N 55°57' W 001°54'1212.4
2016-Feb-01 10:34N 55°52' W 001°34'5313.3
2016-Feb-01 06:33N 55°12' W 000°33'1413.8
2016-Feb-01 05:32N 55°00' W 000°18'1414.1
2016-Feb-01 04:33N 54°50' W 000°03'1414.4
2016-Feb-01 03:33N 54°38' E 000°13'1515.1
2016-Feb-01 02:33N 54°26' E 000°27'1515.2
2016-Feb-01 01:33N 54°12' E 000°39'  

Dump ship's entire track history